Time;durP1;ratioP1;P1;durP2;ratioP2;P2;SDS_P1;SDS_P2;PMS_P1;PMS_P2;Temp;Humidity;BMP_temperature;BMP_pressure;BME280_temperature;BME280_humidity;BME280_pressure;Samples;Min_cycle;Max_cycle;Signal;HPM_P1;HPM_P2
2022/09/02 00:04:12;;;;;;;;;16.00;10.00;;;;;;;;6490247;39;8901;-61
2022/09/02 00:10:17;;;;;;;;;9.00;6.33;;;;;;;;6490306;39;8891;-62
2022/09/02 00:16:22;;;;;;;;;9.33;8.00;;;;;;;;6489774;39;9491;-62
2022/09/02 00:22:25;;;;;;;;;7.00;7.00;;;;;;;;6490209;39;8944;-62
2022/09/02 00:28:29;;;;;;;;;9.00;7.50;;;;;;;;6489988;31;8897;-61
2022/09/02 00:34:35;;;;;;;;;7.33;7.33;;;;;;;;6490276;46;9009;-61
2022/09/02 00:40:45;;;;;;;;;5.67;5.67;;;;;;;;6491420;39;8900;-62
2022/09/02 00:46:47;;;;;;;;;8.00;8.00;;;;;;;;6489882;46;8872;-62
2022/09/02 00:53:14;;;;;;;;;7.50;7.50;;;;;;;;6489391;46;9035;-62
2022/09/02 00:59:26;;;;;;;;;6.00;6.00;;;;;;;;6488901;46;8884;-62
2022/09/02 01:05:34;;;;;;;;;6.33;4.67;;;;;;;;6488668;31;8875;-62
2022/09/02 01:11:51;;;;;;;;;7.33;7.33;;;;;;;;6490209;39;9690;-62
2022/09/02 01:18:09;;;;;;;;;8.33;8.33;;;;;;;;6489667;39;8925;-62
2022/09/02 01:24:22;;;;;;;;;10.00;10.00;;;;;;;;6489548;46;8924;-61
2022/09/02 01:30:35;;;;;;;;;8.67;7.67;;;;;;;;6490364;31;8839;-61
2022/09/02 01:36:43;;;;;;;;;9.33;7.33;;;;;;;;6490449;39;8927;-62
2022/09/02 01:42:52;;;;;;;;;10.00;8.67;;;;;;;;6488309;46;8962;-61
2022/09/02 01:48:56;;;;;;;;;9.33;9.00;;;;;;;;6488997;39;8880;-62
2022/09/02 01:55:04;;;;;;;;;9.67;8.67;;;;;;;;6490056;31;9063;-62
2022/09/02 02:01:11;;;;;;;;;11.00;8.33;;;;;;;;6489137;31;9059;-61
2022/09/02 02:07:24;;;;;;;;;7.00;6.00;;;;;;;;6489256;39;8884;-61
2022/09/02 02:13:44;;;;;;;;;11.00;10.00;;;;;;;;6489184;46;8975;-62
2022/09/02 02:20:13;;;;;;;;;11.00;11.00;;;;;;;;6489442;39;8915;-60
2022/09/02 02:26:16;;;;;;;;;10.00;10.00;;;;;;;;6489015;31;9492;-62
2022/09/02 02:32:25;;;;;;;;;13.67;12.00;;;;;;;;6489999;39;8864;-61
2022/09/02 02:38:36;;;;;;;;;10.00;9.00;;;;;;;;6488240;46;8900;-61
2022/09/02 02:44:41;;;;;;;;;9.67;9.67;;;;;;;;6489384;39;8851;-60
2022/09/02 02:50:44;;;;;;;;;13.00;11.00;;;;;;;;6489583;39;8999;-62
2022/09/02 02:56:47;;;;;;;;;9.67;9.67;;;;;;;;6488341;39;8938;-62
2022/09/02 03:02:53;;;;;;;;;9.33;9.33;;;;;;;;6488827;39;9507;-62
2022/09/02 03:08:56;;;;;;;;;10.00;8.00;;;;;;;;6487602;47;8907;-62
2022/09/02 03:15:02;;;;;;;;;6.33;6.33;;;;;;;;6488069;39;8845;-62
2022/09/02 03:21:09;;;;;;;;;10.00;10.00;;;;;;;;6489014;39;9776;-61
2022/09/02 03:27:13;;;;;;;;;11.00;10.33;;;;;;;;6490408;46;8879;-61
2022/09/02 03:33:20;;;;;;;;;9.67;9.00;;;;;;;;6491506;46;8885;-61
2022/09/02 03:39:22;;;;;;;;;10.33;10.33;;;;;;;;6490480;46;8963;-61
2022/09/02 03:45:30;;;;;;;;;10.33;10.00;;;;;;;;6490585;31;8954;-61
2022/09/02 03:51:42;;;;;;;;;8.00;8.00;;;;;;;;6489196;46;8908;-62
2022/09/02 03:57:48;;;;;;;;;10.33;10.33;;;;;;;;6490286;31;8934;-61
2022/09/02 04:03:52;;;;;;;;;5.00;5.00;;;;;;;;6465629;39;9158;-58
2022/09/02 04:09:55;;;;;;;;;8.33;8.00;;;;;;;;6490952;39;9673;-59
2022/09/02 04:15:58;;;;;;;;;5.67;4.00;;;;;;;;6491341;31;8867;-60
2022/09/02 09:41:49;;;;;;;;;9.75;9.25;;;;;;;;6492054;39;9008;-59
2022/09/02 09:48:15;;;;;;;;;10.00;10.00;;;;;;;;6490272;31;9554;-58
2022/09/02 09:54:18;;;;;;;;;8.75;8.25;;;;;;;;6491275;39;8874;-60
2022/09/02 10:00:31;;;;;;;;;9.25;9.25;;;;;;;;6489800;46;8925;-59
2022/09/02 10:06:37;;;;;;;;;15.25;13.75;;;;;;;;6490836;39;8930;-59
2022/09/02 10:12:39;;;;;;;;;9.50;9.00;;;;;;;;6490462;39;8908;-58
2022/09/02 10:18:57;;;;;;;;;9.50;8.75;;;;;;;;6490285;39;8976;-58
2022/09/02 10:25:02;;;;;;;;;9.00;9.00;;;;;;;;6491978;39;9618;-60
2022/09/02 10:31:42;;;;;;;;;12.00;12.00;;;;;;;;6490154;46;8971;-58
2022/09/02 10:37:47;;;;;;;;;10.75;10.25;;;;;;;;6487175;39;9052;-58
2022/09/02 10:44:20;;;;;;;;;10.00;10.00;;;;;;;;6486955;39;8994;-59
2022/09/02 10:50:52;;;;;;;;;8.25;8.25;;;;;;;;6485642;46;8899;-58
2022/09/02 10:57:10;;;;;;;;;8.25;7.50;;;;;;;;6485812;39;8940;-58
2022/09/02 11:03:20;;;;;;;;;9.75;9.75;;;;;;;;6488324;47;8908;-59
2022/09/02 11:09:29;;;;;;;;;7.50;6.25;;;;;;;;6487821;39;8942;-58
2022/09/02 11:15:44;;;;;;;;;14.25;12.75;;;;;;;;6487944;47;8976;-59
2022/09/02 11:22:12;;;;;;;;;9.25;9.25;;;;;;;;6488451;31;8953;-58
2022/09/02 11:28:54;;;;;;;;;11.00;11.00;;;;;;;;6486333;47;9015;-57
2022/09/02 11:35:02;;;;;;;;;8.00;7.75;;;;;;;;6484492;31;8925;-60
2022/09/02 11:41:10;;;;;;;;;9.00;8.75;;;;;;;;6483052;46;9152;-59
2022/09/02 11:48:28;;;;;;;;;10.50;10.50;;;;;;;;6488926;31;9021;-59
2022/09/02 11:54:39;;;;;;;;;10.00;10.00;;;;;;;;6489970;46;8927;-58
2022/09/02 12:01:03;;;;;;;;;13.50;10.75;;;;;;;;6491286;46;9036;-59
2022/09/02 12:07:07;;;;;;;;;10.50;7.75;;;;;;;;6488145;39;9723;-61
2022/09/02 12:13:34;;;;;;;;;9.50;9.50;;;;;;;;6532425;36;8910;-58
2022/09/02 12:19:42;;;;;;;;;8.00;8.00;;;;;;;;6488281;31;8952;-60
2022/09/02 12:25:55;;;;;;;;;9.00;9.00;;;;;;;;6489261;31;8913;-59
2022/09/02 12:31:57;;;;;;;;;10.25;10.00;;;;;;;;6489610;39;8921;-59
2022/09/02 12:38:24;;;;;;;;;9.00;7.75;;;;;;;;6489008;46;8983;-59
2022/09/02 12:44:52;;;;;;;;;10.25;9.00;;;;;;;;6487611;39;9043;-58
2022/09/02 12:50:58;;;;;;;;;9.75;9.75;;;;;;;;6487828;39;9026;-59
2022/09/02 12:57:02;;;;;;;;;11.25;10.00;;;;;;;;6489635;39;9638;-58
2022/09/02 13:03:07;;;;;;;;;10.50;10.25;;;;;;;;6487663;39;9117;-59
2022/09/02 13:09:28;;;;;;;;;7.50;7.00;;;;;;;;6485944;39;8948;-60
2022/09/02 13:16:08;;;;;;;;;11.25;8.25;;;;;;;;6486200;39;8933;-59
2022/09/02 13:22:53;;;;;;;;;11.75;9.25;;;;;;;;6487430;39;8962;-61
2022/09/02 13:28:55;;;;;;;;;9.75;9.25;;;;;;;;6487142;39;8968;-58
2022/09/02 13:35:21;;;;;;;;;10.00;9.50;;;;;;;;6486993;31;8933;-59
2022/09/02 13:41:32;;;;;;;;;11.75;9.25;;;;;;;;6488042;31;8971;-58
2022/09/02 13:47:35;;;;;;;;;7.00;7.00;;;;;;;;6487832;46;8991;-60
2022/09/02 13:53:48;;;;;;;;;10.50;10.00;;;;;;;;6488616;31;8919;-58
2022/09/02 14:00:15;;;;;;;;;11.75;9.00;;;;;;;;6488891;31;8912;-59
2022/09/02 14:06:22;;;;;;;;;10.25;9.25;;;;;;;;6489200;39;8933;-59
2022/09/02 14:12:28;;;;;;;;;18.50;18.00;;;;;;;;6487990;46;8892;-59
2022/09/02 14:18:30;;;;;;;;;13.25;13.25;;;;;;;;6488933;39;8934;-60
2022/09/02 14:24:40;;;;;;;;;19.25;16.25;;;;;;;;6488983;31;8976;-58
2022/09/02 14:30:55;;;;;;;;;11.75;10.75;;;;;;;;6489658;31;9079;-59
2022/09/02 14:36:57;;;;;;;;;11.00;11.00;;;;;;;;6489404;39;9015;-58
2022/09/02 14:42:59;;;;;;;;;14.00;14.00;;;;;;;;6487633;46;8952;-59
2022/09/02 14:49:18;;;;;;;;;11.50;11.00;;;;;;;;6487618;39;8910;-58
2022/09/02 14:55:59;;;;;;;;;13.33;12.67;;;;;;;;6488402;31;8861;-61
2022/09/02 15:02:03;;;;;;;;;12.67;12.67;;;;;;;;6484745;47;8970;-59
2022/09/02 15:08:05;;;;;;;;;13.00;13.00;;;;;;;;6488845;47;8920;-58
2022/09/02 15:14:07;;;;;;;;;6.33;6.33;;;;;;;;6489011;39;8893;-58
2022/09/02 15:20:12;;;;;;;;;17.00;16.00;;;;;;;;6490190;46;8886;-59
2022/09/02 15:26:15;;;;;;;;;15.00;15.00;;;;;;;;6491500;39;8927;-58
2022/09/02 15:32:17;;;;;;;;;15.33;14.00;;;;;;;;6491175;31;8994;-59
2022/09/02 15:38:19;;;;;;;;;12.33;11.33;;;;;;;;6490975;39;8944;-60
2022/09/02 15:44:24;;;;;;;;;16.33;14.00;;;;;;;;6490666;39;9097;-59
2022/09/02 15:50:31;;;;;;;;;15.67;13.33;;;;;;;;6490968;39;8880;-59
2022/09/02 15:56:37;;;;;;;;;15.67;14.00;;;;;;;;6490685;46;8849;-60
2022/09/02 16:02:39;;;;;;;;;16.33;16.33;;;;;;;;6491193;31;8957;-60
2022/09/02 16:08:42;;;;;;;;;22.67;19.00;;;;;;;;6490657;46;8935;-59
2022/09/02 16:14:47;;;;;;;;;17.00;16.67;;;;;;;;6490352;46;8861;-59
2022/09/02 16:20:56;;;;;;;;;17.67;16.00;;;;;;;;6490175;39;8889;-58
2022/09/02 16:27:03;;;;;;;;;22.67;20.00;;;;;;;;6490941;31;8880;-59
2022/09/02 16:33:05;;;;;;;;;19.00;14.67;;;;;;;;6491167;39;8995;-59
2022/09/02 16:39:10;;;;;;;;;14.00;14.00;;;;;;;;6490525;39;8947;-59
2022/09/02 16:45:12;;;;;;;;;15.33;15.33;;;;;;;;6490411;46;8880;-58
2022/09/02 16:51:16;;;;;;;;;19.67;19.67;;;;;;;;6490415;39;8879;-58
2022/09/02 16:57:19;;;;;;;;;20.67;19.00;;;;;;;;6490384;46;8956;-59
2022/09/02 17:03:22;;;;;;;;;19.00;17.33;;;;;;;;6490384;31;8939;-59
2022/09/02 17:09:24;;;;;;;;;15.00;13.00;;;;;;;;6490218;39;8885;-58
2022/09/02 17:15:28;;;;;;;;;12.67;12.67;;;;;;;;6327593;31;10002528;-58
2022/09/02 17:21:36;;;;;;;;;19.00;16.33;;;;;;;;6489646;39;8877;-58
2022/09/02 17:27:43;;;;;;;;;15.00;15.00;;;;;;;;6490575;31;8863;-58
2022/09/02 17:33:46;;;;;;;;;24.33;21.67;;;;;;;;6490097;39;8916;-58
2022/09/02 17:39:48;;;;;;;;;17.67;15.67;;;;;;;;6490399;39;8946;-60
2022/09/02 17:45:53;;;;;;;;;14.00;14.00;;;;;;;;6489883;46;8889;-58
2022/09/02 17:51:58;;;;;;;;;17.00;17.00;;;;;;;;6488523;46;8995;-59
2022/09/02 17:58:09;;;;;;;;;18.00;16.33;;;;;;;;6489668;39;8908;-59
2022/09/02 18:04:24;;;;;;;;;19.33;19.33;;;;;;;;6490172;31;8918;-58
2022/09/02 18:10:34;;;;;;;;;17.33;17.33;;;;;;;;6489586;46;8885;-58
2022/09/02 18:16:59;;;;;;;;;12.33;12.00;;;;;;;;6488968;39;8891;-60
2022/09/02 18:23:19;;;;;;;;;21.00;14.33;;;;;;;;6489503;31;8853;-58
2022/09/02 18:29:53;;;;;;;;;14.67;14.67;;;;;;;;6488801;46;8957;-59
2022/09/02 18:36:04;;;;;;;;;16.00;16.00;;;;;;;;6488899;39;9128;-59
2022/09/02 18:42:29;;;;;;;;;14.00;14.00;;;;;;;;6489975;39;8921;-59
2022/09/02 18:48:35;;;;;;;;;16.00;14.00;;;;;;;;6489472;39;8899;-61
2022/09/02 18:55:06;;;;;;;;;15.67;15.67;;;;;;;;6490445;39;9505;-58
2022/09/02 19:01:22;;;;;;;;;10.67;10.67;;;;;;;;6488763;31;8948;-59
2022/09/02 19:13:52;;;;;;;;;17.33;16.00;;;;;;;;6488890;39;8862;-60
2022/09/02 19:19:54;;;;;;;;;16.00;14.00;;;;;;;;6488836;39;8923;-60
2022/09/02 19:25:58;;;;;;;;;17.33;16.67;;;;;;;;6489061;31;8923;-59
2022/09/02 19:32:00;;;;;;;;;15.67;13.67;;;;;;;;6488538;39;9536;-58
2022/09/02 19:38:03;;;;;;;;;13.67;12.33;;;;;;;;6487328;39;9087;-60
2022/09/02 19:44:05;;;;;;;;;16.00;13.00;;;;;;;;6488303;31;8950;-60
2022/09/02 19:50:10;;;;;;;;;11.33;11.33;;;;;;;;6487899;47;8955;-60
2022/09/02 19:56:12;;;;;;;;;12.00;12.00;;;;;;;;6487921;31;9019;-59
2022/09/02 20:02:15;;;;;;;;;17.33;16.67;;;;;;;;6489759;31;9034;-59
2022/09/02 20:08:18;;;;;;;;;16.33;13.33;;;;;;;;6491112;31;8847;-58
2022/09/02 20:14:21;;;;;;;;;17.67;14.00;;;;;;;;6490602;39;8932;-59
2022/09/02 20:20:25;;;;;;;;;13.33;13.33;;;;;;;;6490305;46;8950;-59
2022/09/02 20:26:28;;;;;;;;;13.67;13.00;;;;;;;;6490113;46;8987;-58
2022/09/02 20:32:41;;;;;;;;;10.33;10.33;;;;;;;;6490156;39;8909;-58
2022/09/02 20:39:08;;;;;;;;;13.67;12.33;;;;;;;;6490732;46;9003;-58
2022/09/02 20:45:38;;;;;;;;;10.00;9.00;;;;;;;;6490472;39;8977;-60
2022/09/02 20:52:11;;;;;;;;;9.00;9.00;;;;;;;;6489799;46;8980;-59
2022/09/02 20:58:31;;;;;;;;;15.33;15.33;;;;;;;;6489777;46;8883;-60
2022/09/02 21:04:49;;;;;;;;;18.00;16.67;;;;;;;;6489937;46;8971;-60
2022/09/02 21:10:55;;;;;;;;;19.67;18.67;;;;;;;;6490038;39;9565;-58
2022/09/02 21:17:03;;;;;;;;;16.00;15.33;;;;;;;;6489904;39;8897;-59
2022/09/02 21:23:12;;;;;;;;;18.75;18.25;;;;;;;;6488833;31;8927;-59
2022/09/02 21:29:45;;;;;;;;;23.25;20.75;;;;;;;;6489638;39;8897;-58
2022/09/02 21:35:50;;;;;;;;;9.33;8.00;;;;;;;;6490051;39;9002;-59
2022/09/02 21:42:14;;;;;;;;;16.33;16.33;;;;;;;;6490112;46;8933;-59
2022/09/02 21:48:39;;;;;;;;;15.67;14.00;;;;;;;;6490133;39;9495;-59
2022/09/02 21:55:00;;;;;;;;;16.33;16.33;;;;;;;;6490087;31;8900;-59
2022/09/02 22:01:19;;;;;;;;;18.67;16.00;;;;;;;;6489272;39;9503;-59
2022/09/02 22:07:32;;;;;;;;;16.00;15.33;;;;;;;;6489112;39;8955;-59
2022/09/02 22:13:39;;;;;;;;;16.25;16.25;;;;;;;;6489094;39;9643;-58
2022/09/02 22:19:43;;;;;;;;;21.00;17.25;;;;;;;;6489501;39;8900;-58
2022/09/02 22:25:47;;;;;;;;;18.00;17.33;;;;;;;;6490000;31;9507;-59
2022/09/02 22:31:55;;;;;;;;;16.00;14.33;;;;;;;;6489740;39;9007;-59
2022/09/02 22:38:09;;;;;;;;;18.50;16.25;;;;;;;;6489109;31;9070;-60
2022/09/02 22:57:42;;;;;;;;;21.50;19.50;;;;;;;;6488997;39;8944;-59
2022/09/02 23:04:05;;;;;;;;;19.75;18.00;;;;;;;;6488859;39;8938;-59
2022/09/02 23:10:17;;;;;;;;;17.75;17.75;;;;;;;;6488711;39;8920;-59
2022/09/02 23:16:44;;;;;;;;;21.00;19.25;;;;;;;;6488904;39;8867;-59
2022/09/02 23:23:08;;;;;;;;;19.00;18.67;;;;;;;;6487803;39;9081;-58
2022/09/02 23:29:27;;;;;;;;;20.33;19.33;;;;;;;;6487370;39;9485;-60
2022/09/02 23:35:55;;;;;;;;;21.00;20.33;;;;;;;;6487712;39;8933;-60
2022/09/02 23:41:59;;;;;;;;;19.25;18.50;;;;;;;;6488879;46;9118;-59
2022/09/02 23:48:21;;;;;;;;;22.33;20.33;;;;;;;;6489952;39;9583;-58
2022/09/02 23:54:38;;;;;;;;;26.33;24.00;;;;;;;;6489396;39;8859;-59
